createdAt,value
2022-11-16T00:02:16.151Z,7.20
2022-11-16T00:04:45.844Z,7.20
2022-11-16T00:07:16.209Z,7.20
2022-11-16T00:09:45.164Z,7.20
2022-11-16T00:12:13.924Z,7.20
2022-11-16T00:14:42.775Z,7.20
2022-11-16T00:17:11.594Z,7.20
2022-11-16T00:19:40.568Z,7.30
2022-11-16T00:22:10.079Z,7.20
2022-11-16T00:24:40.433Z,7.20
2022-11-16T00:27:09.239Z,7.20
2022-11-16T00:29:38.187Z,7.20
2022-11-16T00:32:07.118Z,7.20
2022-11-16T00:34:35.979Z,7.10
2022-11-16T00:37:04.965Z,7.10
2022-11-16T00:39:34.687Z,7.00
2022-11-16T00:42:04.998Z,7.00
2022-11-16T00:44:33.828Z,6.90
2022-11-16T00:47:02.665Z,6.90
2022-11-16T00:49:31.507Z,6.80
2022-11-16T00:52:00.366Z,6.80
2022-11-16T00:54:29.181Z,6.70
2022-11-16T00:56:58.076Z,6.70
2022-11-16T00:59:28.270Z,6.70
2022-11-16T01:01:57.735Z,6.60
2022-11-16T01:04:26.547Z,6.70
2022-11-16T01:06:59.183Z,6.50
2022-11-16T01:09:29.248Z,6.50
2022-11-16T01:12:09.206Z,6.50
2022-11-16T01:14:40.537Z,6.60
2022-11-16T01:17:09.495Z,6.50
2022-11-16T01:19:39.288Z,6.50
2022-11-16T01:22:08.444Z,6.60
2022-11-16T01:24:37.268Z,6.30
2022-11-16T01:27:06.341Z,6.40
2022-11-16T01:29:35.393Z,6.40
2022-11-16T01:32:06.098Z,6.30
2022-11-16T01:34:34.957Z,6.40
2022-11-16T01:37:03.981Z,6.30
2022-11-16T01:39:32.904Z,6.30
2022-11-16T01:42:01.966Z,6.40
2022-11-16T01:44:57.663Z,6.30
2022-11-16T01:47:28.184Z,6.40
2022-11-16T01:50:00.971Z,6.30
2022-11-16T01:52:33.247Z,6.30
2022-11-16T01:55:03.608Z,6.30
2022-11-16T01:57:41.330Z,6.30
2022-11-16T02:00:12.586Z,6.30
2022-11-16T02:02:45.876Z,6.30
2022-11-16T02:05:18.410Z,6.30
2022-11-16T02:08:30.923Z,6.30
2022-11-16T02:14:11.613Z,6.20
2022-11-16T02:16:48.659Z,6.20
2022-11-16T02:19:39.762Z,6.20
2022-11-16T02:22:22.623Z,6.20
2022-11-16T02:24:59.915Z,6.20
2022-11-16T02:27:53.377Z,6.10
2022-11-16T02:30:24.202Z,6.10
2022-11-16T02:32:59.396Z,6.00
2022-11-16T02:35:32.792Z,6.00
2022-11-16T02:38:06.402Z,6.00
2022-11-16T02:40:37.596Z,5.90
2022-11-16T02:43:10.026Z,5.90
2022-11-16T02:45:44.556Z,5.90
2022-11-16T02:48:18.782Z,5.80
2022-11-16T02:50:49.286Z,5.80
2022-11-16T02:53:18.462Z,5.90
2022-11-16T02:55:47.277Z,5.80
2022-11-16T02:58:21.649Z,5.80
2022-11-16T03:01:01.619Z,5.70
2022-11-16T03:03:39.591Z,5.70
2022-11-16T03:06:15.265Z,5.70
2022-11-16T03:08:47.844Z,5.60
2022-11-16T03:11:34.377Z,5.70
2022-11-16T03:14:14.383Z,5.60
2022-11-16T03:16:47.692Z,5.60
2022-11-16T03:22:36.909Z,5.60
2022-11-16T03:25:06.816Z,5.70
2022-11-16T03:27:40.655Z,5.70
2022-11-16T03:30:12.672Z,5.70
2022-11-16T03:32:47.845Z,5.70
2022-11-16T03:35:21.147Z,5.70
2022-11-16T03:37:52.557Z,5.70
2022-11-16T03:40:24.736Z,5.70
2022-11-16T03:42:54.606Z,5.70
2022-11-16T03:45:23.507Z,5.70
2022-11-16T03:47:54.218Z,5.70
2022-11-16T03:50:23.309Z,5.70
2022-11-16T03:52:52.201Z,5.70
2022-11-16T03:55:21.380Z,5.70
2022-11-16T03:57:50.298Z,5.70
2022-11-16T04:00:19.382Z,5.70
2022-11-16T04:02:48.230Z,5.70
2022-11-16T04:05:36.279Z,5.80
2022-11-16T04:08:23.055Z,5.80
2022-11-16T04:11:09.432Z,5.70
2022-11-16T04:13:55.760Z,5.70
2022-11-16T04:16:42.107Z,5.70
2022-11-16T04:19:28.691Z,5.70
2022-11-16T04:22:19.037Z,5.70
2022-11-16T04:24:53.461Z,5.70
2022-11-16T04:27:43.629Z,5.70
2022-11-16T04:30:13.949Z,5.60
2022-11-16T04:33:00.318Z,5.50
2022-11-16T04:35:42.812Z,5.50
2022-11-16T04:38:13.232Z,5.40
2022-11-16T04:40:42.198Z,5.30
2022-11-16T04:43:11.017Z,5.30
2022-11-16T04:45:57.280Z,5.30
2022-11-16T04:48:26.135Z,5.30
2022-11-16T04:50:54.929Z,5.40
2022-11-16T04:53:27.463Z,5.40
2022-11-16T04:56:00.659Z,5.30
2022-11-16T04:58:30.007Z,5.30
2022-11-16T05:00:59.185Z,5.40
2022-11-16T05:03:28.093Z,5.20
2022-11-16T05:05:57.061Z,5.20
2022-11-16T05:08:27.921Z,5.10
2022-11-16T05:10:56.827Z,5.00
2022-11-16T05:13:25.643Z,5.10
2022-11-16T05:15:54.692Z,5.10
2022-11-16T05:18:23.749Z,5.10
2022-11-16T05:21:01.120Z,5.10
2022-11-16T05:23:48.861Z,5.00
2022-11-16T05:26:18.051Z,4.80
2022-11-16T05:28:46.984Z,4.90
2022-11-16T05:31:15.860Z,4.90
2022-11-16T05:33:44.809Z,4.90
2022-11-16T05:36:14.085Z,5.00
2022-11-16T05:38:44.319Z,4.80
2022-11-16T05:41:13.118Z,4.90
2022-11-16T05:43:42.334Z,4.90
2022-11-16T05:46:11.219Z,4.80
2022-11-16T05:48:40.358Z,4.90
2022-11-16T05:51:09.270Z,4.90
2022-11-16T05:53:38.155Z,4.90
2022-11-16T05:56:09.535Z,4.80
2022-11-16T05:58:38.467Z,4.80
2022-11-16T06:01:07.568Z,4.70
2022-11-16T06:03:37.931Z,4.70
2022-11-16T06:06:07.446Z,4.60
2022-11-16T06:08:37.092Z,4.50
2022-11-16T06:11:10.098Z,4.50
2022-11-16T06:13:39.149Z,4.30
2022-11-16T06:16:08.933Z,4.30
2022-11-16T06:18:40.040Z,4.30
2022-11-16T06:21:10.119Z,4.30
2022-11-16T06:23:39.528Z,4.20
2022-11-16T06:26:10.211Z,4.10
2022-11-16T06:28:39.281Z,4.10
2022-11-16T06:31:09.119Z,4.10
2022-11-16T06:33:38.181Z,3.90
2022-11-16T06:36:07.704Z,3.80
2022-11-16T06:38:36.693Z,3.80
2022-11-16T06:41:06.154Z,3.70
2022-11-16T06:43:36.644Z,3.80
2022-11-16T06:46:05.749Z,3.80
2022-11-16T06:48:35.196Z,3.90
2022-11-16T06:51:04.339Z,3.90
2022-11-16T06:53:33.299Z,3.90
2022-11-16T06:56:04.032Z,3.80
2022-11-16T06:58:33.588Z,3.90
2022-11-16T07:01:14.535Z,3.80
2022-11-16T07:03:52.492Z,3.80
2022-11-16T07:06:21.537Z,3.80
2022-11-16T07:08:50.349Z,3.90
2022-11-16T07:11:20.479Z,3.80
2022-11-16T07:13:49.967Z,3.70
2022-11-16T07:16:20.294Z,3.60
2022-11-16T07:18:49.147Z,3.50
2022-11-16T07:21:19.379Z,3.50
2022-11-16T07:23:48.567Z,3.50
2022-11-16T07:26:17.405Z,3.60
2022-11-16T07:28:48.405Z,3.50
2022-11-16T07:31:19.881Z,3.50
2022-11-16T07:33:48.771Z,3.60
2022-11-16T07:36:17.917Z,3.60
2022-11-16T07:38:47.113Z,3.60
2022-11-16T07:41:17.962Z,3.60
2022-11-16T07:43:52.564Z,3.60
2022-11-16T07:49:16.061Z,3.60
2022-11-16T07:51:46.092Z,3.70
2022-11-16T07:54:15.358Z,3.60
2022-11-16T07:56:44.361Z,3.60
2022-11-16T07:59:13.268Z,3.70
2022-11-16T08:01:43.706Z,3.70
2022-11-16T08:04:12.710Z,3.70
2022-11-16T08:06:41.530Z,3.60
2022-11-16T08:09:11.747Z,3.60
2022-11-16T08:11:40.625Z,3.70
2022-11-16T08:14:09.456Z,3.60
2022-11-16T08:16:38.413Z,3.80
2022-11-16T08:19:08.873Z,4.00
2022-11-16T08:21:37.902Z,3.80
2022-11-16T08:24:07.336Z,4.10
2022-11-16T08:26:36.294Z,4.10
2022-11-16T08:29:05.165Z,4.00
2022-11-16T08:31:33.978Z,4.10
2022-11-16T08:34:03.383Z,4.00
2022-11-16T08:36:33.714Z,4.00
2022-11-16T08:39:02.613Z,3.90
2022-11-16T08:41:31.623Z,4.00
2022-11-16T08:44:02.102Z,4.00
2022-11-16T08:46:31.154Z,3.90
2022-11-16T08:49:00.365Z,4.00
2022-11-16T08:51:29.369Z,4.10
2022-11-16T08:54:00.652Z,4.20
2022-11-16T08:56:30.490Z,4.30
2022-11-16T08:58:59.595Z,4.30
2022-11-16T09:01:30.656Z,4.40
2022-11-16T09:03:59.863Z,4.00
2022-11-16T09:06:29.756Z,4.10
2022-11-16T09:09:00.153Z,4.30
2022-11-16T09:11:29.476Z,4.40
2022-11-16T09:13:59.234Z,4.60
2022-11-16T09:16:38.029Z,4.70
2022-11-16T09:19:06.868Z,4.60
2022-11-16T09:21:39.600Z,4.10
2022-11-16T09:24:10.765Z,4.30
2022-11-16T09:26:46.553Z,4.60
2022-11-16T09:29:22.981Z,4.50
2022-11-16T09:31:59.412Z,4.50
2022-11-16T09:34:34.535Z,4.60
2022-11-16T09:37:12.445Z,4.70
2022-11-16T09:39:43.022Z,4.80
2022-11-16T09:42:29.082Z,4.90
2022-11-16T09:45:05.193Z,5.10
2022-11-16T09:47:51.118Z,4.70
2022-11-16T09:50:39.258Z,5.00
2022-11-16T09:53:27.788Z,5.10
2022-11-16T09:56:01.300Z,5.10
2022-11-16T09:58:34.994Z,5.10
2022-11-16T10:01:07.706Z,5.10
2022-11-16T10:03:44.355Z,5.00
2022-11-16T10:06:21.642Z,5.10
2022-11-16T10:08:53.030Z,5.20
2022-11-16T10:11:49.581Z,5.00
2022-11-16T10:14:33.560Z,5.00
2022-11-16T10:17:11.436Z,5.10
2022-11-16T10:19:51.767Z,5.00
2022-11-16T10:22:36.698Z,5.00
2022-11-16T10:25:16.039Z,5.00
2022-11-16T10:28:08.244Z,5.10
2022-11-16T10:30:45.707Z,5.10
2022-11-16T10:33:20.275Z,5.00
2022-11-16T10:35:54.244Z,5.20
2022-11-16T10:38:26.840Z,4.90
2022-11-16T10:40:59.339Z,4.90
2022-11-16T10:43:33.935Z,5.10
2022-11-16T10:46:13.007Z,5.00
2022-11-16T10:48:49.833Z,4.90
2022-11-16T10:51:18.816Z,5.00
2022-11-16T10:53:47.902Z,5.20
2022-11-16T10:56:21.231Z,5.20
2022-11-16T10:59:00.081Z,5.20
2022-11-16T11:01:40.231Z,5.40
2022-11-16T11:04:17.815Z,5.40
2022-11-16T11:06:48.107Z,5.10
2022-11-16T11:09:29.256Z,5.10
2022-11-16T11:12:24.536Z,5.20
2022-11-16T11:15:27.148Z,5.00
2022-11-16T11:18:28.615Z,5.10
2022-11-16T11:21:10.436Z,5.00
2022-11-16T11:23:49.182Z,5.00
2022-11-16T11:26:37.253Z,5.00
2022-11-16T11:29:18.369Z,5.10
2022-11-16T11:31:51.085Z,5.10
2022-11-16T11:34:23.735Z,5.10
2022-11-16T11:36:57.056Z,5.10
2022-11-16T11:39:32.378Z,4.90
2022-11-16T11:42:07.124Z,4.70
2022-11-16T11:44:49.589Z,4.70
2022-11-16T11:48:00.555Z,4.70
2022-11-16T11:50:40.470Z,4.80
2022-11-16T11:53:15.683Z,4.80
2022-11-16T11:55:44.624Z,4.70
2022-11-16T11:58:18.004Z,4.70
2022-11-16T12:00:59.546Z,4.70
2022-11-16T12:03:47.629Z,4.70
2022-11-16T12:06:24.117Z,4.90
2022-11-16T12:09:12.067Z,4.90
2022-11-16T12:11:55.777Z,4.90
2022-11-16T12:14:41.745Z,4.90
2022-11-16T12:17:20.660Z,4.90
2022-11-16T12:20:17.077Z,4.90
2022-11-16T12:23:15.279Z,5.10
2022-11-16T12:25:50.976Z,5.30
2022-11-16T12:28:45.000Z,5.30
2022-11-16T12:31:53.328Z,5.10
2022-11-16T12:34:37.741Z,5.20
2022-11-16T12:37:17.612Z,5.00
2022-11-16T12:39:57.525Z,4.90
2022-11-16T12:42:36.631Z,4.90
2022-11-16T12:45:32.784Z,4.80
2022-11-16T12:48:27.123Z,4.80
2022-11-16T12:51:04.684Z,4.60
2022-11-16T12:54:03.472Z,4.60
2022-11-16T12:56:48.671Z,4.60
2022-11-16T12:59:41.317Z,4.60
2022-11-16T13:02:23.770Z,4.70
2022-11-16T13:04:57.858Z,4.60
2022-11-16T13:07:30.403Z,4.70
2022-11-16T13:10:06.857Z,4.70
2022-11-16T13:12:37.279Z,4.60
2022-11-16T13:15:07.357Z,4.60
2022-11-16T13:17:40.198Z,4.70
2022-11-16T13:20:26.728Z,4.60
2022-11-16T13:23:02.258Z,4.80
2022-11-16T13:25:39.516Z,4.60
2022-11-16T13:28:18.954Z,4.60
2022-11-16T13:30:59.228Z,4.70
2022-11-16T13:33:40.389Z,4.70
2022-11-16T13:36:46.652Z,4.60
2022-11-16T13:39:22.356Z,4.60
2022-11-16T13:42:07.487Z,4.60
2022-11-16T13:44:37.211Z,4.50
2022-11-16T13:47:18.266Z,4.50
2022-11-16T13:49:53.187Z,4.50
2022-11-16T13:52:24.817Z,4.40
2022-11-16T13:54:59.588Z,4.30
2022-11-16T13:57:33.048Z,4.10
2022-11-16T14:00:12.815Z,4.10
2022-11-16T14:02:43.035Z,4.10
2022-11-16T14:05:39.326Z,4.00
2022-11-16T14:08:40.959Z,4.00
2022-11-16T14:11:31.148Z,4.10
2022-11-16T14:14:02.626Z,4.00
2022-11-16T14:16:49.107Z,4.00
2022-11-16T14:19:55.280Z,3.80
2022-11-16T14:22:45.859Z,3.80
2022-11-16T14:25:35.306Z,3.70
2022-11-16T14:28:20.451Z,3.80
2022-11-16T14:31:01.609Z,3.70
2022-11-16T14:33:34.684Z,3.80
2022-11-16T14:36:05.868Z,3.70
2022-11-16T14:38:36.473Z,3.70
2022-11-16T14:41:12.802Z,3.60
2022-11-16T14:43:44.557Z,3.60
2022-11-16T14:46:22.978Z,3.60
2022-11-16T14:48:51.975Z,3.60
2022-11-16T14:51:24.329Z,3.50
2022-11-16T14:53:57.978Z,3.60
2022-11-16T14:56:27.153Z,3.60
2022-11-16T14:58:57.153Z,3.60
2022-11-16T15:01:31.145Z,3.60
2022-11-16T15:04:02.716Z,3.60
2022-11-16T15:06:37.395Z,3.50
2022-11-16T15:09:06.935Z,3.50
2022-11-16T15:11:57.025Z,3.40
2022-11-16T15:14:30.972Z,3.40
2022-11-16T15:17:01.827Z,3.40
2022-11-16T15:19:32.235Z,3.40
2022-11-16T15:22:03.462Z,3.40
2022-11-16T15:24:33.773Z,3.20
2022-11-16T15:27:18.244Z,3.30
2022-11-16T15:29:47.243Z,3.30
2022-11-16T15:32:19.273Z,3.30
2022-11-16T15:34:50.654Z,3.30
2022-11-16T15:38:51.861Z,3.10
2022-11-16T15:41:22.851Z,3.40
2022-11-16T15:44:13.299Z,3.50
2022-11-16T15:46:44.299Z,3.40
2022-11-16T15:49:24.782Z,3.40
2022-11-16T15:51:53.667Z,3.30
2022-11-16T15:54:30.027Z,3.20
2022-11-16T15:57:09.090Z,3.20
2022-11-16T15:59:39.192Z,3.10
2022-11-16T16:02:19.653Z,3.10
2022-11-16T16:04:51.263Z,3.10
2022-11-16T16:07:38.324Z,3.10
2022-11-16T16:10:26.144Z,3.00
2022-11-16T16:12:57.143Z,3.00
2022-11-16T16:15:30.165Z,2.90
2022-11-16T16:18:00.359Z,3.00
2022-11-16T16:20:31.571Z,3.00
2022-11-16T16:23:11.160Z,3.00
2022-11-16T16:25:47.462Z,3.00
2022-11-16T16:28:19.032Z,3.00
2022-11-16T16:30:48.121Z,3.00
2022-11-16T16:33:22.276Z,3.00
2022-11-16T16:35:51.531Z,3.00
2022-11-16T16:38:20.451Z,3.00
2022-11-16T16:40:51.268Z,2.90
2022-11-16T16:43:22.733Z,2.90
2022-11-16T16:45:51.592Z,2.90
2022-11-16T16:48:20.579Z,2.90
2022-11-16T16:50:49.491Z,2.90
2022-11-16T16:53:19.005Z,2.90
2022-11-16T16:55:50.344Z,2.80
2022-11-16T16:58:19.368Z,2.80
2022-11-16T17:00:48.431Z,2.90
2022-11-16T17:03:17.416Z,2.90
2022-11-16T17:05:46.358Z,2.90
2022-11-16T17:08:15.548Z,3.00
2022-11-16T17:10:44.455Z,3.00
2022-11-16T17:13:14.741Z,3.00
2022-11-16T17:15:43.562Z,2.90
2022-11-16T17:18:12.731Z,3.00
2022-11-16T17:20:45.309Z,2.90
2022-11-16T17:23:15.978Z,3.00
2022-11-16T17:25:44.908Z,2.90
2022-11-16T17:28:15.219Z,2.90
2022-11-16T17:30:44.521Z,2.80
2022-11-16T17:33:13.871Z,2.80
2022-11-16T17:35:42.921Z,2.90
2022-11-16T17:38:13.431Z,2.90
2022-11-16T17:40:42.992Z,2.90
2022-11-16T17:43:12.659Z,2.80
2022-11-16T17:45:43.331Z,2.90
2022-11-16T17:48:12.771Z,2.80
2022-11-16T17:50:48.239Z,2.80
2022-11-16T17:53:17.379Z,2.80
2022-11-16T17:55:46.459Z,2.90
2022-11-16T17:58:15.772Z,2.80
2022-11-16T18:00:46.574Z,2.90
2022-11-16T18:03:15.556Z,2.80
2022-11-16T18:05:45.025Z,2.70
2022-11-16T18:08:14.538Z,2.80
2022-11-16T18:10:44.036Z,2.80
2022-11-16T18:13:13.632Z,2.80
2022-11-16T18:15:42.930Z,2.80
2022-11-16T18:18:14.434Z,2.90
2022-11-16T18:20:43.322Z,2.80
2022-11-16T18:23:12.564Z,2.80
2022-11-16T18:25:42.456Z,2.80
2022-11-16T18:28:11.833Z,2.90
2022-11-16T18:30:41.113Z,2.90
2022-11-16T18:33:10.161Z,2.80
2022-11-16T18:35:40.875Z,2.80
2022-11-16T18:38:13.553Z,2.80
2022-11-16T18:40:43.530Z,2.80
2022-11-16T18:43:15.093Z,2.80
2022-11-16T18:45:43.893Z,2.80
2022-11-16T18:48:13.228Z,2.80
2022-11-16T18:50:43.553Z,2.90
2022-11-16T18:53:12.825Z,2.90
2022-11-16T18:55:41.805Z,2.80
2022-11-16T18:58:28.829Z,2.80
2022-11-16T19:01:04.269Z,2.80
2022-11-16T19:03:34.350Z,2.80
2022-11-16T19:06:08.280Z,2.90
2022-11-16T19:08:39.021Z,2.80
2022-11-16T19:11:09.491Z,2.90
2022-11-16T19:13:38.806Z,2.80
2022-11-16T19:16:08.907Z,2.80
2022-11-16T19:18:38.913Z,2.80
2022-11-16T19:21:11.218Z,2.70
2022-11-16T19:23:43.468Z,2.70
2022-11-16T19:26:13.703Z,2.80
2022-11-16T19:28:44.263Z,2.70
2022-11-16T19:31:16.187Z,2.70
2022-11-16T19:33:46.116Z,2.80
2022-11-16T19:36:18.467Z,2.60
2022-11-16T19:38:49.519Z,2.70
2022-11-16T19:41:21.035Z,2.60
2022-11-16T19:43:52.093Z,2.60
2022-11-16T19:46:22.295Z,2.70
2022-11-16T19:48:51.826Z,2.60
2022-11-16T19:51:23.897Z,2.60
2022-11-16T19:53:54.402Z,2.70
2022-11-16T19:56:25.304Z,2.60
2022-11-16T19:58:54.676Z,2.60
2022-11-16T20:01:26.047Z,2.60
2022-11-16T20:03:55.686Z,2.60
2022-11-16T20:06:29.621Z,2.60
2022-11-16T20:09:09.942Z,2.60
2022-11-16T20:11:40.610Z,2.50
2022-11-16T20:14:12.148Z,2.50
2022-11-16T20:16:43.181Z,2.50
2022-11-16T20:19:13.166Z,2.50
2022-11-16T20:21:44.954Z,2.50
2022-11-16T20:24:15.959Z,2.50
2022-11-16T20:26:47.266Z,2.50
2022-11-16T20:29:20.372Z,2.50
2022-11-16T20:31:49.899Z,2.50
2022-11-16T20:34:21.020Z,2.50
2022-11-16T20:36:52.239Z,2.50
2022-11-16T20:39:23.432Z,2.60
2022-11-16T20:41:53.215Z,2.40
2022-11-16T20:44:22.934Z,2.30
2022-11-16T20:46:53.224Z,2.40
2022-11-16T20:49:22.710Z,2.40
2022-11-16T20:51:53.095Z,2.40
2022-11-16T20:54:25.092Z,2.40
2022-11-16T20:56:54.155Z,2.40
2022-11-16T20:59:23.016Z,2.40
2022-11-16T21:01:54.252Z,2.40
2022-11-16T21:04:23.641Z,2.40
2022-11-16T21:06:54.032Z,2.40
2022-11-16T21:09:24.125Z,2.40
2022-11-16T21:12:10.540Z,2.40
2022-11-16T21:14:40.031Z,2.50
2022-11-16T21:17:09.324Z,2.40
2022-11-16T21:19:38.617Z,2.40
2022-11-16T21:22:08.906Z,2.40
2022-11-16T21:24:38.078Z,2.40
2022-11-16T21:27:07.668Z,2.40
2022-11-16T21:29:36.588Z,2.40
2022-11-16T21:32:05.627Z,2.40
2022-11-16T21:34:39.836Z,2.30
2022-11-16T21:37:10.638Z,2.30
2022-11-16T21:39:39.553Z,2.30
2022-11-16T21:42:08.480Z,2.20
2022-11-16T21:44:43.210Z,2.20
2022-11-16T21:47:12.696Z,2.30
2022-11-16T21:50:00.923Z,2.30
2022-11-16T21:52:31.820Z,2.20
2022-11-16T21:55:03.414Z,2.30
2022-11-16T21:57:32.532Z,2.20
2022-11-16T22:00:02.413Z,2.20
2022-11-16T22:02:31.277Z,2.10
2022-11-16T22:05:17.681Z,2.20
2022-11-16T22:07:48.157Z,2.20
2022-11-16T22:10:17.058Z,2.20
2022-11-16T22:12:46.044Z,2.20
2022-11-16T22:15:15.148Z,2.10
2022-11-16T22:17:45.223Z,2.10
2022-11-16T22:20:14.498Z,2.00
2022-11-16T22:22:43.358Z,2.10
2022-11-16T22:25:14.407Z,2.10
2022-11-16T22:28:06.023Z,2.10
2022-11-16T22:30:32.221Z,2.20
2022-11-16T22:33:01.562Z,2.10
2022-11-16T22:35:30.300Z,2.10
2022-11-16T22:38:00.068Z,2.10
2022-11-16T22:40:30.338Z,2.20
2022-11-16T22:42:59.550Z,2.20
2022-11-16T22:45:28.378Z,2.20
2022-11-16T22:47:57.452Z,2.10
2022-11-16T22:50:32.901Z,2.10
2022-11-16T22:53:01.983Z,2.10
2022-11-16T22:55:35.616Z,2.00
2022-11-16T22:58:05.277Z,2.10
2022-11-16T23:00:40.680Z,2.10
2022-11-16T23:03:10.819Z,2.00
2022-11-16T23:05:39.742Z,2.00
2022-11-16T23:08:08.702Z,2.00
2022-11-16T23:10:59.087Z,1.90
2022-11-16T23:13:45.571Z,2.00
2022-11-16T23:16:14.381Z,2.00
2022-11-16T23:18:43.422Z,2.00
2022-11-16T23:21:29.551Z,2.00
2022-11-16T23:24:15.652Z,2.00
2022-11-16T23:27:03.441Z,2.00
2022-11-16T23:29:32.419Z,2.00
2022-11-16T23:32:01.255Z,2.00
2022-11-16T23:34:30.867Z,2.00
2022-11-16T23:37:04.201Z,2.10
2022-11-16T23:39:33.394Z,2.00
2022-11-16T23:42:21.057Z,2.00
2022-11-16T23:44:50.120Z,2.00
2022-11-16T23:47:19.035Z,2.10
2022-11-16T23:49:48.090Z,2.00
2022-11-16T23:52:17.017Z,2.00
2022-11-16T23:54:45.819Z,1.90
2022-11-16T23:57:16.057Z,1.90
2022-11-16T23:59:45.026Z,1.90
